TimeCDT,TemperatureF,Dew PointF,Humidity,Sea Level PressureIn,VisibilityMPH,Wind Direction,Wind SpeedMPH,Gust SpeedMPH,PrecipitationIn,Events,Conditions,WindDirDegrees,DateUTC
12:12 AM,59.0,42.8,55,29.87,10.0,SSE,11.5,-,N/A,,Clear,160,2012-10-04 05:12:00
12:33 AM,59.0,42.8,55,29.87,10.0,South,6.9,-,N/A,,Clear,170,2012-10-04 05:33:00
12:53 AM,57.2,42.8,59,29.86,10.0,Calm,Calm,-,N/A,,Clear,0,2012-10-04 05:53:00
1:12 AM,57.2,42.8,59,29.86,10.0,Calm,Calm,-,N/A,,Clear,0,2012-10-04 06:12:00
1:33 AM,59.0,41.0,51,29.86,10.0,South,11.5,16.1,N/A,,Clear,180,2012-10-04 06:33:00
1:53 AM,60.8,41.0,48,29.86,10.0,South,9.2,17.3,N/A,,Clear,190,2012-10-04 06:53:00
2:12 AM,60.8,39.2,45,29.86,10.0,South,11.5,-,N/A,,Clear,190,2012-10-04 07:12:00
2:33 AM,62.6,39.2,42,29.85,10.0,South,10.4,18.4,N/A,,Clear,190,2012-10-04 07:33:00
2:53 AM,62.6,39.2,42,29.86,10.0,SSW,12.7,20.7,N/A,,Clear,210,2012-10-04 07:53:00
3:12 AM,60.8,37.4,42,29.87,10.0,WSW,16.1,28.8,N/A,,Clear,250,2012-10-04 08:12:00
3:33 AM,55.4,37.4,51,29.89,7.0,West,13.8,20.7,N/A,,Clear,260,2012-10-04 08:33:00
3:53 AM,51.8,39.2,62,29.90,10.0,West,12.7,19.6,N/A,,Clear,260,2012-10-04 08:53:00
4:13 AM,50.0,39.2,66,29.90,10.0,WSW,9.2,16.1,N/A,,Clear,250,2012-10-04 09:13:00
4:33 AM,48.2,39.2,71,29.92,4.0,WSW,10.4,-,N/A,,Haze,250,2012-10-04 09:33:00
4:52 AM,48.2,41.0,76,29.92,7.0,West,11.5,19.6,N/A,,Clear,260,2012-10-04 09:52:00
5:13 AM,48.2,41.0,76,29.92,7.0,WSW,9.2,-,N/A,,Scattered Clouds,250,2012-10-04 10:13:00
5:33 AM,48.2,41.0,76,29.94,7.0,West,11.5,21.9,N/A,,Scattered Clouds,270,2012-10-04 10:33:00
5:52 AM,48.2,39.2,71,29.95,10.0,West,9.2,16.1,N/A,,Scattered Clouds,270,2012-10-04 10:52:00
6:13 AM,46.4,39.2,76,29.96,10.0,West,9.2,16.1,N/A,,Mostly Cloudy,270,2012-10-04 11:13:00
6:33 AM,46.4,39.2,76,29.96,10.0,West,10.4,21.9,N/A,,Scattered Clouds,270,2012-10-04 11:33:00
6:52 AM,46.4,39.2,76,29.96,10.0,West,6.9,19.6,N/A,,Mostly Cloudy,280,2012-10-04 11:52:00
7:13 AM,46.4,37.4,71,29.95,10.0,WNW,16.1,21.9,N/A,,Mostly Cloudy,290,2012-10-04 12:13:00
7:38 AM,46.4,37.4,71,29.99,10.0,West,9.2,21.9,N/A,,Mostly Cloudy,270,2012-10-04 12:38:00
7:52 AM,46.4,37.4,71,29.99,10.0,West,12.7,18.4,N/A,,Overcast,280,2012-10-04 12:52:00
8:13 AM,44.6,37.4,76,29.99,10.0,West,11.5,24.2,N/A,,Scattered Clouds,280,2012-10-04 13:13:00
8:33 AM,46.4,37.4,71,29.99,10.0,WNW,17.3,27.6,N/A,,Scattered Clouds,290,2012-10-04 13:33:00
8:52 AM,44.6,35.6,71,30.00,10.0,WNW,15.0,29.9,N/A,,Clear,290,2012-10-04 13:52:00
9:13 AM,42.8,33.8,70,30.01,10.0,West,11.5,23.0,N/A,,Clear,280,2012-10-04 14:13:00
9:32 AM,44.6,33.8,66,30.02,10.0,WNW,17.3,25.3,N/A,,Clear,290,2012-10-04 14:32:00
9:53 AM,42.8,33.8,70,30.02,10.0,WNW,18.4,27.6,N/A,,Clear,290,2012-10-04 14:53:00
10:13 AM,44.6,33.8,66,30.04,10.0,West,20.7,29.9,N/A,,Scattered Clouds,280,2012-10-04 15:13:00
10:32 AM,46.4,33.8,62,30.04,10.0,WNW,17.3,28.8,N/A,,Scattered Clouds,290,2012-10-04 15:32:00
10:53 AM,46.4,33.8,62,30.04,10.0,WNW,19.6,29.9,N/A,,Scattered Clouds,290,2012-10-04 15:53:00
11:13 AM,46.4,33.8,62,30.06,10.0,WNW,13.8,27.6,N/A,,Scattered Clouds,290,2012-10-04 16:13:00
11:33 AM,46.4,33.8,62,30.06,10.0,West,13.8,25.3,N/A,,Mostly Cloudy,270,2012-10-04 16:33:00
11:53 AM,46.4,33.8,62,30.07,10.0,WNW,17.3,25.3,N/A,,Mostly Cloudy,290,2012-10-04 16:53:00
12:13 PM,48.2,33.8,58,30.08,10.0,WNW,11.5,28.8,N/A,,Mostly Cloudy,290,2012-10-04 17:13:00
12:33 PM,48.2,32.0,54,30.08,10.0,WNW,15.0,26.5,N/A,,Mostly Cloudy,300,2012-10-04 17:33:00
12:53 PM,48.2,32.0,54,30.09,10.0,WNW,15.0,26.5,N/A,,Mostly Cloudy,300,2012-10-04 17:53:00
1:33 PM,50.0,32.0,50,30.09,10.0,WNW,17.3,26.5,N/A,,Mostly Cloudy,290,2012-10-04 18:33:00
1:53 PM,48.2,32.0,54,30.10,10.0,WNW,20.7,31.1,N/A,,Scattered Clouds,300,2012-10-04 18:53:00
2:13 PM,50.0,30.2,47,30.10,10.0,WNW,13.8,26.5,N/A,,Scattered Clouds,290,2012-10-04 19:13:00
2:33 PM,50.0,30.2,47,30.11,10.0,WNW,17.3,25.3,N/A,,Scattered Clouds,300,2012-10-04 19:33:00
2:53 PM,51.8,30.2,44,30.11,10.0,NW,13.8,26.5,N/A,,Scattered Clouds,310,2012-10-04 19:53:00
3:13 PM,51.8,30.2,44,30.11,10.0,West,16.1,26.5,N/A,,Scattered Clouds,280,2012-10-04 20:13:00
3:32 PM,48.2,30.2,50,30.11,10.0,NW,16.1,25.3,N/A,,Scattered Clouds,310,2012-10-04 20:32:00
3:53 PM,51.8,30.2,44,30.12,10.0,West,16.1,25.3,N/A,,Scattered Clouds,280,2012-10-04 20:53:00
4:13 PM,51.8,30.2,44,30.12,10.0,NW,15.0,24.2,N/A,,Mostly Cloudy,310,2012-10-04 21:13:00
4:33 PM,48.2,30.2,50,30.13,10.0,WNW,12.7,21.9,N/A,,Scattered Clouds,290,2012-10-04 21:33:00
4:53 PM,48.2,30.2,50,30.13,10.0,WNW,12.7,26.5,N/A,,Scattered Clouds,300,2012-10-04 21:53:00
5:13 PM,46.4,30.2,53,30.14,10.0,WNW,16.1,27.6,N/A,,Scattered Clouds,300,2012-10-04 22:13:00
5:53 PM,46.4,30.2,53,30.14,10.0,WNW,16.1,24.2,N/A,,Scattered Clouds,300,2012-10-04 22:53:00
6:13 PM,46.4,30.2,53,30.15,10.0,WNW,16.1,24.2,N/A,,Scattered Clouds,300,2012-10-04 23:13:00
6:33 PM,44.6,28.4,53,30.15,10.0,NW,9.2,21.9,N/A,,Clear,310,2012-10-04 23:33:00
6:53 PM,44.6,28.4,53,30.16,10.0,WNW,10.4,23.0,N/A,,Clear,300,2012-10-04 23:53:00
7:13 PM,44.6,28.4,53,30.16,10.0,WNW,10.4,17.3,N/A,,Clear,300,2012-10-05 00:13:00
7:33 PM,44.6,28.4,53,30.17,10.0,WNW,10.4,21.9,N/A,,Scattered Clouds,300,2012-10-05 00:33:00
7:53 PM,44.6,30.2,57,30.17,10.0,WNW,11.5,23.0,N/A,,Scattered Clouds,300,2012-10-05 00:53:00
8:13 PM,44.6,28.4,53,30.18,10.0,WNW,10.4,20.7,N/A,,Mostly Cloudy,300,2012-10-05 01:13:00
8:33 PM,44.6,28.4,53,30.18,10.0,WNW,12.7,21.9,N/A,,Overcast,300,2012-10-05 01:33:00
8:53 PM,44.6,28.4,53,30.19,10.0,WNW,12.7,19.6,N/A,,Overcast,300,2012-10-05 01:53:00
9:12 PM,44.6,28.4,53,30.19,10.0,WNW,10.4,23.0,N/A,,Overcast,300,2012-10-05 02:12:00
9:33 PM,42.8,28.4,57,30.19,10.0,NW,11.5,21.9,N/A,,Overcast,310,2012-10-05 02:33:00
9:53 PM,42.8,28.4,57,30.18,10.0,NW,13.8,21.9,N/A,,Mostly Cloudy,310,2012-10-05 02:53:00
10:12 PM,42.8,28.4,57,30.18,10.0,NW,12.7,24.2,N/A,,Mostly Cloudy,310,2012-10-05 03:12:00
10:33 PM,42.8,28.4,57,30.18,10.0,WNW,9.2,23.0,N/A,,Mostly Cloudy,300,2012-10-05 03:33:00
10:53 PM,42.8,28.4,57,30.17,10.0,WNW,12.7,21.9,N/A,,Mostly Cloudy,300,2012-10-05 03:53:00
11:12 PM,42.8,30.2,61,30.17,10.0,NW,11.5,19.6,N/A,,Overcast,310,2012-10-05 04:12:00
11:53 PM,42.8,30.2,61,30.18,10.0,NW,9.2,-,N/A,,Overcast,310,2012-10-05 04:53:00